createdAt,value
2019-05-01T00:00:45.720Z,65.94
2019-05-01T00:03:15.832Z,66.70
2019-05-01T00:05:44.103Z,66.54
2019-05-01T00:08:11.381Z,66.99
2019-05-01T00:10:37.820Z,66.56
2019-05-01T00:13:04.571Z,66.93
2019-05-01T00:15:33.101Z,66.89
2019-05-01T00:17:59.470Z,67.29
2019-05-01T00:20:25.711Z,67.99
2019-05-01T00:22:51.824Z,67.95
2019-05-01T00:25:18.026Z,67.77
2019-05-01T00:27:44.282Z,67.45
2019-05-01T00:30:12.997Z,67.87
2019-05-01T00:32:39.109Z,67.75
2019-05-01T00:35:06.456Z,68.13
2019-05-01T00:37:33.205Z,68.48
2019-05-01T00:39:59.529Z,68.62
2019-05-01T00:42:25.719Z,68.61
2019-05-01T00:44:51.870Z,69.03
2019-05-01T00:47:18.180Z,69.38
2019-05-01T00:49:44.345Z,69.36
2019-05-01T00:52:10.549Z,69.17
2019-05-01T00:54:38.543Z,69.96
2019-05-01T00:57:09.605Z,70.50
2019-05-01T00:59:40.332Z,70.82
2019-05-01T01:02:09.490Z,71.64
2019-05-01T01:04:35.838Z,71.37
2019-05-01T01:07:02.142Z,71.03
2019-05-01T01:09:28.338Z,70.68
2019-05-01T01:11:54.527Z,71.24
2019-05-01T01:14:20.784Z,71.62
2019-05-01T01:16:47.046Z,71.36
2019-05-01T01:19:13.397Z,71.58
2019-05-01T01:21:39.716Z,72.29
2019-05-01T01:24:06.133Z,72.25
2019-05-01T01:26:32.749Z,72.40
2019-05-01T01:28:59.187Z,72.89
2019-05-01T01:31:25.412Z,73.63
2019-05-01T01:33:51.841Z,73.71
2019-05-01T01:36:17.969Z,74.27
2019-05-01T01:38:44.345Z,74.61
2019-05-01T01:41:10.711Z,74.49
2019-05-01T01:43:41.747Z,74.34
2019-05-01T01:46:15.660Z,75.04
2019-05-01T01:48:42.233Z,75.55
2019-05-01T01:51:08.490Z,75.37
2019-05-01T01:53:35.353Z,75.18
2019-05-01T01:56:01.710Z,75.18
2019-05-01T01:58:28.448Z,75.01
2019-05-01T02:01:13.613Z,75.21
2019-05-01T02:03:41.960Z,75.48
2019-05-01T02:06:08.448Z,75.07
2019-05-01T02:08:35.129Z,75.22
2019-05-01T02:11:01.394Z,75.27
2019-05-01T02:13:27.726Z,75.65
2019-05-01T02:15:53.944Z,75.96
2019-05-01T02:18:20.277Z,75.74
2019-05-01T02:20:46.490Z,75.98
2019-05-01T02:23:12.953Z,76.11
2019-05-01T02:25:41.495Z,76.51
2019-05-01T02:28:21.730Z,76.53
2019-05-01T02:30:50.579Z,76.87
2019-05-01T02:33:17.006Z,77.29
2019-05-01T02:35:44.223Z,77.83
2019-05-01T02:38:11.435Z,77.06
2019-05-01T02:40:41.418Z,77.44
2019-05-01T02:43:11.526Z,77.03
2019-05-01T02:45:42.076Z,76.89
2019-05-01T02:48:09.113Z,76.93
2019-05-01T02:50:37.236Z,77.48
2019-05-01T02:53:03.444Z,77.19
2019-05-01T02:55:31.894Z,76.91
2019-05-01T02:57:58.607Z,76.13
2019-05-01T03:00:25.426Z,75.97
2019-05-01T03:02:52.289Z,75.63
2019-05-01T03:05:18.663Z,75.40
2019-05-01T03:07:44.967Z,75.28
2019-05-01T03:10:11.435Z,75.17
2019-05-01T03:12:41.290Z,75.44
2019-05-01T03:15:08.626Z,75.98
2019-05-01T03:17:50.500Z,76.32
2019-05-01T03:20:21.652Z,75.99
2019-05-01T03:22:50.938Z,76.18
2019-05-01T03:25:17.475Z,77.14
2019-05-01T03:27:43.829Z,76.30
2019-05-01T03:30:10.505Z,76.40
2019-05-01T03:32:36.963Z,76.52
2019-05-01T03:35:05.221Z,76.29
2019-05-01T03:37:31.738Z,76.20
2019-05-01T03:39:58.191Z,75.97
2019-05-01T03:42:24.616Z,76.11
2019-05-01T03:44:51.130Z,76.55
2019-05-01T03:47:17.667Z,76.51
2019-05-01T03:49:44.099Z,76.40
2019-05-01T03:52:10.546Z,76.48
2019-05-01T03:54:36.814Z,76.91
2019-05-01T03:57:03.356Z,76.83
2019-05-01T03:59:29.669Z,76.58
2019-05-01T04:01:58.139Z,76.60
2019-05-01T04:04:29.272Z,76.89
2019-05-01T04:06:55.579Z,76.82
2019-05-01T04:09:22.005Z,77.75
2019-05-01T04:11:48.508Z,76.38
2019-05-01T04:14:14.922Z,76.76
2019-05-01T04:16:43.236Z,76.70
2019-05-01T04:19:09.841Z,76.83
2019-05-01T04:21:40.847Z,76.93
2019-05-01T04:24:08.455Z,77.01
2019-05-01T04:26:35.929Z,76.94
2019-05-01T04:29:10.277Z,77.07
2019-05-01T04:31:38.739Z,77.20
2019-05-01T04:34:16.293Z,77.38
2019-05-01T04:36:44.907Z,77.54
2019-05-01T04:39:11.562Z,77.57
2019-05-01T04:41:37.934Z,77.61
2019-05-01T04:44:04.400Z,77.67
2019-05-01T04:46:31.137Z,77.82
2019-05-01T04:48:59.951Z,78.11
2019-05-01T04:51:27.322Z,78.03
2019-05-01T04:53:53.677Z,78.06
2019-05-01T04:56:20.184Z,77.86
2019-05-01T04:58:46.555Z,77.79
2019-05-01T05:01:13.205Z,77.78
2019-05-01T05:03:39.693Z,77.70
2019-05-01T05:06:06.590Z,77.57
2019-05-01T05:08:33.018Z,77.70
2019-05-01T05:11:01.342Z,78.00
2019-05-01T05:13:35.115Z,77.95
2019-05-01T05:16:03.438Z,78.36
2019-05-01T05:18:29.956Z,77.92
2019-05-01T05:20:56.791Z,78.08
2019-05-01T05:23:23.016Z,77.86
2019-05-01T05:25:49.640Z,77.80
2019-05-01T05:28:16.104Z,77.22
2019-05-01T05:30:43.443Z,76.56
2019-05-01T05:33:18.154Z,76.63
2019-05-01T05:35:40.439Z,76.35
2019-05-01T05:38:10.036Z,75.88
2019-05-01T05:40:37.221Z,75.56
2019-05-01T05:43:03.982Z,75.57
2019-05-01T05:45:32.642Z,75.59
2019-05-01T05:47:59.861Z,75.26
2019-05-01T05:50:29.997Z,75.08
2019-05-01T05:53:00.509Z,74.77
2019-05-01T05:55:31.059Z,74.67
2019-05-01T05:58:01.552Z,74.67
2019-05-01T06:00:49.022Z,74.61
2019-05-01T06:03:35.881Z,74.63
2019-05-01T06:06:08.140Z,74.22
2019-05-01T06:08:37.562Z,74.24
2019-05-01T06:11:06.001Z,74.23
2019-05-01T06:13:52.526Z,74.09
2019-05-01T06:16:29.501Z,74.03
2019-05-01T06:19:03.628Z,74.23
2019-05-01T06:21:47.232Z,73.98
2019-05-01T06:24:19.238Z,73.73
2019-05-01T06:26:45.678Z,73.67
2019-05-01T06:29:12.209Z,73.56
2019-05-01T06:31:38.867Z,72.98
2019-05-01T06:34:05.431Z,72.87
2019-05-01T06:36:32.174Z,72.81
2019-05-01T06:38:59.399Z,72.53
2019-05-01T06:41:28.634Z,72.36
2019-05-01T06:43:56.970Z,72.07
2019-05-01T06:46:28.942Z,72.14
2019-05-01T06:49:14.053Z,71.81
2019-05-01T06:51:47.983Z,72.07
2019-05-01T06:54:16.287Z,71.87
2019-05-01T06:56:43.508Z,71.60
2019-05-01T06:59:11.299Z,71.51
2019-05-01T07:01:38.466Z,71.35
2019-05-01T07:04:05.344Z,70.80
2019-05-01T07:06:32.982Z,71.28
2019-05-01T07:09:00.668Z,71.34
2019-05-01T07:11:27.322Z,71.28
2019-05-01T07:13:55.803Z,71.20
2019-05-01T07:16:22.348Z,71.13
2019-05-01T07:18:50.375Z,70.56
2019-05-01T07:21:16.573Z,70.29
2019-05-01T07:23:43.575Z,70.12
2019-05-01T07:26:13.361Z,69.72
2019-05-01T07:28:39.911Z,69.60
2019-05-01T07:31:07.129Z,69.84
2019-05-01T07:33:34.361Z,69.87
2019-05-01T07:36:01.046Z,69.46
2019-05-01T07:38:28.254Z,69.55
2019-05-01T07:40:58.859Z,69.42
2019-05-01T07:43:42.042Z,69.53
2019-05-01T07:46:18.312Z,69.64
2019-05-01T07:48:44.897Z,69.30
2019-05-01T07:51:11.195Z,69.21
2019-05-01T07:53:38.016Z,69.29
2019-05-01T07:56:05.911Z,68.63
2019-05-01T07:58:32.819Z,68.43
2019-05-01T08:01:03.852Z,68.04
2019-05-01T08:03:30.539Z,67.55
2019-05-01T08:05:57.078Z,67.95
2019-05-01T08:08:23.301Z,67.50
2019-05-01T08:10:49.678Z,67.38
2019-05-01T08:13:15.920Z,67.34
2019-05-01T08:15:42.290Z,66.33
2019-05-01T08:18:13.336Z,66.14
2019-05-01T08:20:41.342Z,65.52
2019-05-01T08:23:07.771Z,65.51
2019-05-01T08:25:35.707Z,65.05
2019-05-01T08:28:03.881Z,64.83
2019-05-01T08:30:48.107Z,63.63
2019-05-01T08:33:20.091Z,62.75
2019-05-01T08:35:47.301Z,62.86
2019-05-01T08:38:13.391Z,63.54
2019-05-01T08:40:39.635Z,63.50
2019-05-01T08:43:05.739Z,63.20
2019-05-01T08:45:40.648Z,62.33
2019-05-01T08:48:06.975Z,62.70
2019-05-01T08:50:33.336Z,63.31
2019-05-01T08:52:59.581Z,63.53
2019-05-01T08:55:25.817Z,62.29
2019-05-01T08:57:52.419Z,62.00
2019-05-01T09:00:19.395Z,61.56
2019-05-01T09:02:45.575Z,62.29
2019-05-01T09:05:27.552Z,62.39
2019-05-01T09:07:40.632Z,61.62
2019-05-01T09:10:09.113Z,61.58
2019-05-01T09:12:35.531Z,60.65
2019-05-01T09:15:07.263Z,60.34
2019-05-01T09:17:31.385Z,59.84
2019-05-01T09:19:57.477Z,59.89
2019-05-01T09:22:24.015Z,60.63
2019-05-01T09:24:50.320Z,60.80
2019-05-01T09:27:18.893Z,60.94
2019-05-01T09:29:51.631Z,59.14
2019-05-01T09:32:19.013Z,57.98
2019-05-01T09:34:45.283Z,56.38
2019-05-01T09:37:11.620Z,55.87
2019-05-01T09:39:38.346Z,54.65
2019-05-01T09:42:06.717Z,53.32
2019-05-01T09:44:33.305Z,52.23
2019-05-01T09:46:59.633Z,51.71
2019-05-01T09:49:25.755Z,49.96
2019-05-01T09:51:59.915Z,51.45
2019-05-01T09:54:27.927Z,52.19
2019-05-01T09:56:54.246Z,51.53
2019-05-01T09:59:20.361Z,51.29
2019-05-01T10:01:47.790Z,51.03
2019-05-01T10:04:14.043Z,50.49
2019-05-01T10:06:40.346Z,50.01
2019-05-01T10:09:07.150Z,49.02
2019-05-01T10:11:35.997Z,50.10
2019-05-01T10:16:30.616Z,48.90
2019-05-01T10:18:56.794Z,48.99
2019-05-01T10:21:27.310Z,48.42
2019-05-01T10:23:51.700Z,48.42
2019-05-01T10:26:24.089Z,48.74
2019-05-01T10:29:08.102Z,48.74
2019-05-01T10:31:53.288Z,47.79
2019-05-01T10:34:30.382Z,46.70
2019-05-01T10:36:56.984Z,46.64
2019-05-01T10:39:23.261Z,46.03
2019-05-01T10:41:49.435Z,47.00
2019-05-01T10:44:15.717Z,47.07
2019-05-01T10:46:42.050Z,46.48
2019-05-01T10:49:08.232Z,47.53
2019-05-01T10:51:34.631Z,47.76
2019-05-01T10:54:00.911Z,48.55
2019-05-01T10:56:27.126Z,48.61
2019-05-01T10:58:53.491Z,46.49
2019-05-01T11:01:24.311Z,41.75
2019-05-01T11:03:50.537Z,39.37
2019-05-01T11:06:16.902Z,40.09
2019-05-01T11:08:43.244Z,40.68
2019-05-01T11:11:09.443Z,41.52
2019-05-01T11:13:35.674Z,42.30
2019-05-01T11:16:02.219Z,43.45
2019-05-01T11:18:28.340Z,41.94
2019-05-01T11:20:54.697Z,41.75
2019-05-01T11:23:20.806Z,41.39
2019-05-01T11:25:47.252Z,39.51
2019-05-01T11:28:13.373Z,40.81
2019-05-01T11:30:39.787Z,41.92
2019-05-01T11:33:19.437Z,43.27
2019-05-01T11:36:09.735Z,43.47
2019-05-01T11:38:51.979Z,47.48
2019-05-01T11:41:26.148Z,49.84
2019-05-01T11:43:52.497Z,50.58
2019-05-01T11:46:18.917Z,51.78
2019-05-01T11:48:46.232Z,50.14
2019-05-01T11:51:12.649Z,47.58
2019-05-01T11:53:38.810Z,47.58
2019-05-01T11:56:05.043Z,45.37
2019-05-01T11:58:31.205Z,42.66
2019-05-01T12:00:59.325Z,40.67
2019-05-01T12:03:25.476Z,36.85
2019-05-01T12:05:51.745Z,34.53
2019-05-01T12:08:17.982Z,31.94
2019-05-01T12:10:44.315Z,31.11
2019-05-01T12:13:11.637Z,28.01
2019-05-01T12:15:37.894Z,28.67
2019-05-01T12:18:04.085Z,26.05
2019-05-01T12:20:30.268Z,25.08
2019-05-01T12:22:56.540Z,25.96
2019-05-01T12:25:22.839Z,25.06
2019-05-01T12:27:48.982Z,24.71
2019-05-01T12:30:18.103Z,24.72
2019-05-01T12:32:44.428Z,25.31
2019-05-01T12:35:11.909Z,24.71
2019-05-01T12:37:40.324Z,23.31
2019-05-01T12:40:09.483Z,22.94
2019-05-01T12:42:36.152Z,22.92
2019-05-01T12:45:05.635Z,22.22
2019-05-01T12:47:38.071Z,22.47
2019-05-01T12:50:08.205Z,22.25
2019-05-01T12:52:38.859Z,23.05
2019-05-01T12:55:10.597Z,22.76
2019-05-01T12:57:36.771Z,22.57
2019-05-01T13:00:09.197Z,22.47
2019-05-01T13:02:35.842Z,22.85
2019-05-01T13:05:04.424Z,22.59
2019-05-01T13:07:30.763Z,22.37
2019-05-01T13:09:57.898Z,21.85
2019-05-01T13:12:24.225Z,21.51
2019-05-01T13:14:50.408Z,21.21
2019-05-01T13:17:16.712Z,21.65
2019-05-01T13:19:43.018Z,21.44
2019-05-01T13:22:09.382Z,21.25
2019-05-01T13:24:37.502Z,20.83
2019-05-01T13:27:14.964Z,20.50
2019-05-01T13:29:45.995Z,20.33
2019-05-01T13:32:17.160Z,20.96
2019-05-01T13:34:44.573Z,21.22
2019-05-01T13:37:10.853Z,20.78
2019-05-01T13:39:37.128Z,20.80
2019-05-01T13:42:03.879Z,20.76
2019-05-01T13:44:30.083Z,20.11
2019-05-01T13:46:57.088Z,20.65
2019-05-01T13:49:23.515Z,20.83
2019-05-01T13:51:49.769Z,21.12
2019-05-01T13:54:16.066Z,22.08
2019-05-01T13:56:43.508Z,22.76
2019-05-01T13:59:11.352Z,24.04
2019-05-01T14:01:37.606Z,24.05
2019-05-01T14:04:03.778Z,23.08
2019-05-01T14:06:30.087Z,22.84
2019-05-01T14:08:56.315Z,23.32
2019-05-01T14:11:22.626Z,22.74
2019-05-01T14:13:49.026Z,23.15
2019-05-01T14:16:15.292Z,23.05
2019-05-01T14:18:41.719Z,22.63
2019-05-01T14:21:10.059Z,23.22
2019-05-01T14:23:38.738Z,23.29
2019-05-01T14:26:05.964Z,22.69
2019-05-01T14:28:33.483Z,23.06
2019-05-01T14:30:59.715Z,22.19
2019-05-01T14:33:26.052Z,23.08
2019-05-01T14:35:52.187Z,23.27
2019-05-01T14:38:18.507Z,23.07
2019-05-01T14:40:44.819Z,22.85
2019-05-01T14:43:11.097Z,23.17
2019-05-01T14:45:38.477Z,21.78
2019-05-01T14:48:04.985Z,22.18
2019-05-01T14:50:32.820Z,22.26
2019-05-01T14:52:59.077Z,22.05
2019-05-01T14:55:25.632Z,22.13
2019-05-01T14:57:51.865Z,22.43
2019-05-01T15:00:19.284Z,22.37
2019-05-01T15:02:45.534Z,21.41
2019-05-01T15:05:11.902Z,21.63
2019-05-01T15:07:43.638Z,22.12
2019-05-01T15:10:07.540Z,22.69
2019-05-01T15:12:33.856Z,23.24
2019-05-01T15:15:01.951Z,23.81
2019-05-01T15:17:39.318Z,25.82
2019-05-01T15:20:06.540Z,26.66
2019-05-01T15:22:32.926Z,27.34
2019-05-01T15:24:59.099Z,28.36
2019-05-01T15:27:25.382Z,28.30
2019-05-01T15:29:51.641Z,28.71
2019-05-01T15:32:17.987Z,29.39
2019-05-01T15:34:44.248Z,30.05
2019-05-01T15:37:10.554Z,30.38
2019-05-01T15:39:41.875Z,31.33
2019-05-01T15:42:15.895Z,32.89
2019-05-01T15:44:43.496Z,32.93
2019-05-01T15:47:09.691Z,33.52
2019-05-01T15:49:36.007Z,34.13
2019-05-01T15:52:02.245Z,34.57
2019-05-01T15:54:28.493Z,35.03
2019-05-01T15:56:54.634Z,35.40
2019-05-01T15:59:20.898Z,35.88
2019-05-01T16:01:47.077Z,36.33
2019-05-01T16:04:13.425Z,36.58
2019-05-01T16:06:39.637Z,37.60
2019-05-01T16:09:06.710Z,38.08
2019-05-01T16:11:44.651Z,38.21
2019-05-01T16:14:11.340Z,38.14
2019-05-01T16:16:37.596Z,38.64
2019-05-01T16:19:03.831Z,38.25
2019-05-01T16:21:31.243Z,38.16
2019-05-01T16:23:58.714Z,38.52
2019-05-01T16:26:25.548Z,39.22
2019-05-01T16:28:51.868Z,39.28
2019-05-01T16:31:18.039Z,39.54
2019-05-01T16:33:45.231Z,39.96
2019-05-01T16:36:11.492Z,40.78
2019-05-01T16:38:51.580Z,41.03
2019-05-01T16:41:17.776Z,41.10
2019-05-01T16:43:43.928Z,41.37
2019-05-01T16:46:10.235Z,41.82
2019-05-01T16:48:36.472Z,42.30
2019-05-01T16:51:02.919Z,42.20
2019-05-01T16:53:29.305Z,42.40
2019-05-01T16:55:57.006Z,42.70
2019-05-01T16:58:23.451Z,43.01
2019-05-01T17:00:55.712Z,43.29
2019-05-01T17:03:24.258Z,43.67
2019-05-01T17:05:55.168Z,43.95
2019-05-01T17:08:40.026Z,44.06
2019-05-01T17:11:06.788Z,44.33
2019-05-01T17:13:33.195Z,44.68
2019-05-01T17:15:59.537Z,45.01
2019-05-01T17:18:25.802Z,45.65
2019-05-01T17:20:52.047Z,45.65
2019-05-01T17:23:18.286Z,46.46
2019-05-01T17:25:44.540Z,46.46
2019-05-01T17:28:10.969Z,46.54
2019-05-01T17:30:40.328Z,46.53
2019-05-01T17:33:06.836Z,47.00
2019-05-01T17:35:37.016Z,47.00
2019-05-01T17:38:01.653Z,47.60
2019-05-01T17:40:28.340Z,47.71
2019-05-01T17:42:54.667Z,48.16
2019-05-01T17:45:20.949Z,47.96
2019-05-01T17:47:47.125Z,48.10
2019-05-01T17:50:16.410Z,48.34
2019-05-01T17:52:41.861Z,48.32
2019-05-01T17:55:08.171Z,48.44
2019-05-01T17:57:34.449Z,49.10
2019-05-01T18:00:02.552Z,48.92
2019-05-01T18:02:47.734Z,49.12
2019-05-01T18:05:32.767Z,49.10
2019-05-01T18:07:58.944Z,49.15
2019-05-01T18:10:25.175Z,49.60
2019-05-01T18:12:51.302Z,49.73
2019-05-01T18:15:17.898Z,49.58
2019-05-01T18:17:44.226Z,49.56
2019-05-01T18:20:10.942Z,49.36
2019-05-01T18:22:45.224Z,49.53
2019-05-01T18:25:13.916Z,49.48
2019-05-01T18:27:42.022Z,49.79
2019-05-01T18:30:09.937Z,49.76
2019-05-01T18:32:41.485Z,49.94
2019-05-01T18:35:14.075Z,49.95
2019-05-01T18:37:48.655Z,49.81
2019-05-01T18:40:20.102Z,50.04
2019-05-01T18:42:46.348Z,50.70
2019-05-01T18:45:20.034Z,50.46
2019-05-01T18:47:46.336Z,51.28
2019-05-01T18:50:13.648Z,50.97
2019-05-01T18:52:40.153Z,50.75
2019-05-01T18:55:06.832Z,51.16
2019-05-01T18:57:33.049Z,51.00
2019-05-01T18:59:59.175Z,51.31
2019-05-01T19:02:26.228Z,51.10
2019-05-01T19:04:52.550Z,51.27
2019-05-01T19:07:18.827Z,52.01
2019-05-01T19:09:45.070Z,52.45
2019-05-01T19:12:12.631Z,52.63
2019-05-01T19:14:38.830Z,52.28
2019-05-01T19:17:05.127Z,52.61
2019-05-01T19:19:31.413Z,52.78
2019-05-01T19:21:57.838Z,52.77
2019-05-01T19:24:24.557Z,53.25
2019-05-01T19:26:50.837Z,53.42
2019-05-01T19:29:17.162Z,53.59
2019-05-01T19:31:43.727Z,54.08
2019-05-01T19:34:10.097Z,54.40
2019-05-01T19:36:40.400Z,54.57
2019-05-01T19:39:06.791Z,54.71
2019-05-01T19:41:34.289Z,55.02
2019-05-01T19:44:00.512Z,55.46
2019-05-01T19:46:26.685Z,55.79
2019-05-01T19:48:52.947Z,55.90
2019-05-01T19:51:23.616Z,56.52
2019-05-01T19:53:51.666Z,56.66
2019-05-01T19:56:16.633Z,56.53
2019-05-01T19:58:43.814Z,56.55
2019-05-01T20:01:10.121Z,56.54
2019-05-01T20:03:37.122Z,56.54
2019-05-01T20:06:06.088Z,56.54
2019-05-01T20:08:33.245Z,56.94
2019-05-01T20:10:59.789Z,56.76
2019-05-01T20:13:25.995Z,56.64
2019-05-01T20:15:53.283Z,56.72
2019-05-01T20:18:19.625Z,56.68
2019-05-01T20:20:45.960Z,56.70
2019-05-01T20:23:12.536Z,56.82
2019-05-01T20:25:39.309Z,56.78
2019-05-01T20:28:06.749Z,57.32
2019-05-01T20:30:33.179Z,56.79
2019-05-01T20:33:02.163Z,57.20
2019-05-01T20:35:28.477Z,56.96
2019-05-01T20:37:55.781Z,56.69
2019-05-01T20:40:22.191Z,56.68
2019-05-01T20:42:48.414Z,57.27
2019-05-01T20:45:18.200Z,57.53
2019-05-01T20:47:46.226Z,57.19
2019-05-01T20:50:13.855Z,57.00
2019-05-01T20:52:40.132Z,56.96
2019-05-01T20:55:06.659Z,57.11
2019-05-01T20:57:38.027Z,57.39
2019-05-01T21:00:05.238Z,57.43
2019-05-01T21:02:33.510Z,57.81
2019-05-01T21:05:01.801Z,57.71
2019-05-01T21:07:33.157Z,57.91
2019-05-01T21:10:01.388Z,58.27
2019-05-01T21:12:27.770Z,58.23
2019-05-01T21:14:54.051Z,58.24
2019-05-01T21:17:20.401Z,58.45
2019-05-01T21:19:46.641Z,58.92
2019-05-01T21:22:14.240Z,59.15
2019-05-01T21:24:40.695Z,59.11
2019-05-01T21:27:06.960Z,59.38
2019-05-01T21:29:34.338Z,59.78
2019-05-01T21:32:00.968Z,60.41
2019-05-01T21:34:27.174Z,60.73
2019-05-01T21:36:54.057Z,60.57
2019-05-01T21:39:22.249Z,60.56
2019-05-01T21:41:48.656Z,60.92
2019-05-01T21:44:14.895Z,61.04
2019-05-01T21:46:43.035Z,60.77
2019-05-01T21:49:09.179Z,60.56
2019-05-01T21:51:37.066Z,60.68
2019-05-01T21:54:03.664Z,60.83
2019-05-01T21:56:29.815Z,60.63
2019-05-01T21:58:59.563Z,61.02
2019-05-01T22:01:24.328Z,60.80
2019-05-01T22:03:52.535Z,60.81
2019-05-01T22:06:18.830Z,60.83
2019-05-01T22:08:45.140Z,61.03
2019-05-01T22:11:11.694Z,61.38
2019-05-01T22:13:37.908Z,61.31
2019-05-01T22:16:09.046Z,61.16
2019-05-01T22:18:40.292Z,61.43
2019-05-01T22:21:17.842Z,61.47
2019-05-01T22:24:04.109Z,61.15
2019-05-01T22:26:32.245Z,61.15
2019-05-01T22:29:00.386Z,61.16
2019-05-01T22:31:44.981Z,61.31
2019-05-01T22:34:13.669Z,61.74
2019-05-01T22:36:39.958Z,62.21
2019-05-01T22:39:07.449Z,62.79
2019-05-01T22:41:35.669Z,62.75
2019-05-01T22:44:02.131Z,63.18
2019-05-01T22:46:29.196Z,63.54
2019-05-01T22:48:55.485Z,63.44
2019-05-01T22:51:23.487Z,63.55
2019-05-01T22:53:51.553Z,63.71
2019-05-01T22:56:17.830Z,63.78
2019-05-01T22:58:44.032Z,63.87
2019-05-01T23:01:13.351Z,64.12
2019-05-01T23:03:43.017Z,64.12
2019-05-01T23:06:09.350Z,64.00
2019-05-01T23:08:35.909Z,64.07
2019-05-01T23:11:02.345Z,64.08
2019-05-01T23:13:28.684Z,64.29
2019-05-01T23:15:56.189Z,64.31
2019-05-01T23:18:23.209Z,64.03
2019-05-01T23:20:49.322Z,64.20
2019-05-01T23:23:17.287Z,64.00
2019-05-01T23:25:43.960Z,63.84
2019-05-01T23:28:10.289Z,64.11
2019-05-01T23:30:36.554Z,64.17
2019-05-01T23:33:03.026Z,64.50
2019-05-01T23:35:29.347Z,64.62
2019-05-01T23:37:55.503Z,64.81
2019-05-01T23:40:21.827Z,64.92
2019-05-01T23:42:52.304Z,65.04
2019-05-01T23:45:16.386Z,65.11
2019-05-01T23:47:43.896Z,65.24
2019-05-01T23:50:10.595Z,65.39
2019-05-01T23:52:38.620Z,65.48
2019-05-01T23:55:05.812Z,65.51
2019-05-01T23:57:32.149Z,65.61
2019-05-01T23:59:58.258Z,65.51
